This is the latest recevied weather packets stored in our database for station/object EA4IAJ-12. If no packets are shown the sender has not sent any weather packets the latest 10 day(s).
| Time | Temp. | Humidity | Pressure | Rain* | Wind** | Luminosity | Snow |
|---|---|---|---|---|---|---|---|
| 1777664723 | 21.11° C | 33% | 1017.4 hPa | - | - | - | - |
| 1777663823 | 21.67° C | 33% | 1019.7 hPa | - | - | - | - |
| 1777662922 | 22.22° C | 33% | 1021.3 hPa | - | - | - | - |
| 1777662022 | 22.22° C | 33% | 1022.4 hPa | - | - | - | - |
| 1777661121 | 23.33° C | 33% | 1025.6 hPa | - | - | - | - |
| 1777660220 | 24.44° C | 33% | 1029.7 hPa | - | - | - | - |
| 1777659320 | 26.11° C | 33% | 1035.9 hPa | - | - | - | - |
| 1777658419 | 27.78° C | 34% | 1043.3 hPa | - | - | - | - |
| 1777657519 | 25.56° C | 33% | 1035.6 hPa | - | - | - | - |
| 1777656618 | 26.67° C | 34% | 1039.9 hPa | - | - | - | - |
| 1777655718 | 27.22° C | 34% | 1040.7 hPa | - | - | - | - |
| 1777654817 | 30° C | 35% | 1051.8 hPa | - | - | - | - |
| 1777653916 | 31.11° C | 36% | 1056.4 hPa | - | - | - | - |
| 1777653016 | 27.22° C | 36% | 1042.5 hPa | - | - | - | - |
| 1777652115 | 26.67° C | 36% | 1040.7 hPa | - | - | - | - |
| 1777651215 | 26.67° C | 36% | 1040 hPa | - | - | - | - |
| 1777650327 | 27.22° C | 36% | 1042.8 hPa | - | - | - | - |
| 1777649426 | 31.67° C | 38% | 1059.9 hPa | - | - | - | - |
| 1777648526 | 33.33° C | 40% | 1067.3 hPa | - | - | - | - |
| 1777647625 | 29.44° C | 39% | 1051.4 hPa | - | - | - | - |
| 1777646725 | 33.33° C | 43% | 1068.2 hPa | - | - | - | - |
| 1777645824 | 31.11° C | 43% | 1059.3 hPa | - | - | - | - |
| 1777644923 | 31.67° C | 45% | 1061.9 hPa | - | - | - | - |
| 1777644023 | 31.11° C | 46% | 1060.5 hPa | - | - | - | - |
| 1777643122 | 30° C | 47% | 1056.5 hPa | - | - | - | - |
* Rain since midnight (hover to see other rain measurements)
** Current wind speed in m/s (hover to see current wind gust speed)